createdAt,value
2022-07-29T00:00:14.640Z,73.44
2022-07-29T00:02:49.152Z,73.32
2022-07-29T00:05:20.757Z,73.21
2022-07-29T00:07:52.247Z,73.24
2022-07-29T00:10:24.158Z,72.94
2022-07-29T00:12:55.740Z,72.90
2022-07-29T00:15:27.486Z,72.77
2022-07-29T00:17:59.657Z,72.87
2022-07-29T00:20:31.313Z,72.50
2022-07-29T00:23:13.509Z,72.29
2022-07-29T00:25:45.490Z,72.15
2022-07-29T00:28:19.168Z,72.14
2022-07-29T00:30:51.252Z,71.78
2022-07-29T00:33:23.221Z,71.70
2022-07-29T00:35:54.969Z,71.61
2022-07-29T00:38:30.334Z,71.45
2022-07-29T00:41:01.815Z,71.05
2022-07-29T00:43:33.358Z,70.90
2022-07-29T00:46:04.949Z,70.87
2022-07-29T00:48:36.542Z,70.45
2022-07-29T00:51:11.447Z,70.44
2022-07-29T00:53:44.079Z,70.21
2022-07-29T00:56:15.677Z,70.30
2022-07-29T00:58:49.079Z,70.27
2022-07-29T01:01:28.281Z,70.21
2022-07-29T01:04:11.186Z,70.19
2022-07-29T01:06:42.925Z,70.27
2022-07-29T01:09:15.419Z,70.35
2022-07-29T01:12:08.539Z,70.24
2022-07-29T01:14:41.676Z,70.19
2022-07-29T01:17:16.764Z,69.93
2022-07-29T01:20:05.724Z,70.24
2022-07-29T01:22:49.548Z,70.03
2022-07-29T01:25:46.927Z,70.03
2022-07-29T01:29:07.649Z,70.16
2022-07-29T01:31:59.492Z,70.07
2022-07-29T01:34:44.081Z,69.83
2022-07-29T01:37:27.244Z,69.80
2022-07-29T01:40:00.915Z,69.94
2022-07-29T01:42:39.173Z,69.63
2022-07-29T01:45:17.851Z,69.47
2022-07-29T01:48:17.504Z,69.13
2022-07-29T01:50:54.372Z,69.06
2022-07-29T01:53:41.504Z,69.03
2022-07-29T01:56:19.141Z,68.87
2022-07-29T01:59:12.666Z,68.96
2022-07-29T02:01:57.306Z,68.95
2022-07-29T02:04:31.279Z,68.93
2022-07-29T02:07:07.557Z,69.15
2022-07-29T02:09:40.542Z,69.17
2022-07-29T02:12:14.157Z,69.21
2022-07-29T02:14:49.521Z,69.27
2022-07-29T02:17:31.342Z,69.28
2022-07-29T02:20:06.197Z,69.42
2022-07-29T02:22:40.729Z,69.71
2022-07-29T02:25:14.738Z,70.01
2022-07-29T02:28:02.780Z,70.22
2022-07-29T02:30:35.460Z,70.29
2022-07-29T02:33:08.747Z,70.47
2022-07-29T02:35:45.742Z,70.73
2022-07-29T02:38:40.166Z,70.75
2022-07-29T02:41:21.356Z,71.03
2022-07-29T02:43:56.748Z,71.11
2022-07-29T02:46:33.349Z,71.03
2022-07-29T02:49:11.780Z,70.94
2022-07-29T02:51:49.287Z,70.87
2022-07-29T02:54:29.136Z,70.77
2022-07-29T02:57:08.795Z,70.53
2022-07-29T02:59:44.371Z,70.58
2022-07-29T03:02:19.119Z,70.74
2022-07-29T03:04:52.517Z,70.66
2022-07-29T03:07:25.168Z,70.84
2022-07-29T03:10:04.598Z,70.43
2022-07-29T03:12:36.130Z,70.51
2022-07-29T03:15:09.945Z,70.38
2022-07-29T03:17:46.455Z,70.40
2022-07-29T03:20:18.463Z,70.38
2022-07-29T03:22:50.122Z,70.17
2022-07-29T03:25:24.749Z,70.15
2022-07-29T03:27:57.659Z,70.32
2022-07-29T03:30:31.868Z,70.30
2022-07-29T03:33:13.496Z,70.72
2022-07-29T03:35:45.629Z,70.91
2022-07-29T03:38:17.076Z,71.18
2022-07-29T03:41:04.230Z,71.34
2022-07-29T03:43:40.045Z,71.66
2022-07-29T03:46:23.642Z,71.80
2022-07-29T03:48:59.527Z,71.97
2022-07-29T03:51:34.083Z,72.31
2022-07-29T03:54:10.139Z,72.70
2022-07-29T03:56:48.761Z,73.18
2022-07-29T03:59:23.150Z,73.26
2022-07-29T04:02:00.372Z,73.54
2022-07-29T04:04:34.462Z,73.68
2022-07-29T04:07:06.462Z,73.90
2022-07-29T04:09:38.099Z,74.01
2022-07-29T04:12:10.509Z,74.32
2022-07-29T04:14:41.912Z,74.45
2022-07-29T04:17:13.601Z,74.48
2022-07-29T04:19:45.117Z,74.55
2022-07-29T04:22:16.499Z,74.54
2022-07-29T04:24:48.028Z,74.52
2022-07-29T04:27:19.651Z,74.75
2022-07-29T04:29:56.789Z,74.90
2022-07-29T04:32:29.204Z,74.93
2022-07-29T04:35:00.953Z,74.97
2022-07-29T04:37:32.424Z,75.07
2022-07-29T04:40:11.557Z,75.39
2022-07-29T04:42:46.458Z,75.36
2022-07-29T04:45:22.488Z,75.47
2022-07-29T04:47:54.646Z,75.34
2022-07-29T04:50:28.636Z,75.26
2022-07-29T04:53:00.013Z,75.55
2022-07-29T04:55:52.739Z,75.51
2022-07-29T04:58:25.432Z,75.66
2022-07-29T05:00:56.875Z,75.59
2022-07-29T05:03:28.232Z,75.52
2022-07-29T05:06:05.081Z,75.67
2022-07-29T05:08:38.900Z,75.65
2022-07-29T05:11:23.179Z,75.81
2022-07-29T05:13:56.535Z,75.79
2022-07-29T05:16:28.979Z,75.78
2022-07-29T05:19:00.562Z,75.88
2022-07-29T05:21:32.199Z,75.56
2022-07-29T05:24:14.016Z,75.42
2022-07-29T05:26:47.698Z,75.50
2022-07-29T05:29:42.863Z,75.66
2022-07-29T05:32:10.767Z,75.83
2022-07-29T05:34:51.124Z,76.00
2022-07-29T05:37:26.732Z,76.09
2022-07-29T05:39:59.206Z,75.95
2022-07-29T05:42:30.868Z,75.97
2022-07-29T05:45:02.612Z,75.81
2022-07-29T05:47:37.118Z,76.03
2022-07-29T05:50:10.905Z,76.17
2022-07-29T05:52:45.480Z,75.95
2022-07-29T05:55:17.086Z,76.04
2022-07-29T05:57:48.664Z,76.09
2022-07-29T06:00:31.458Z,76.20
2022-07-29T06:03:21.792Z,76.40
2022-07-29T06:06:08.457Z,76.37
2022-07-29T06:08:41.355Z,76.43
2022-07-29T06:11:15.085Z,76.20
2022-07-29T06:13:51.197Z,76.14
2022-07-29T06:16:29.833Z,76.14
2022-07-29T06:19:01.801Z,75.71
2022-07-29T06:21:35.907Z,75.78
2022-07-29T06:24:10.833Z,75.64
2022-07-29T06:27:02.660Z,75.27
2022-07-29T06:29:34.177Z,74.93
2022-07-29T06:32:07.446Z,74.99
2022-07-29T06:34:43.053Z,74.93
2022-07-29T06:37:37.885Z,74.87
2022-07-29T06:40:32.672Z,74.62
2022-07-29T06:43:04.168Z,74.54
2022-07-29T06:45:49.862Z,74.16
2022-07-29T06:48:21.550Z,73.95
2022-07-29T06:51:02.908Z,73.46
2022-07-29T06:53:59.526Z,73.03
2022-07-29T06:56:40.265Z,72.79
2022-07-29T06:59:13.546Z,72.63
2022-07-29T07:01:46.000Z,72.12
2022-07-29T07:04:30.523Z,71.88
2022-07-29T07:07:01.956Z,71.88
2022-07-29T07:09:42.813Z,71.72
2022-07-29T07:12:14.487Z,71.39
2022-07-29T07:14:46.257Z,71.07
2022-07-29T07:17:21.357Z,71.04
2022-07-29T07:20:13.936Z,70.84
2022-07-29T07:22:49.217Z,70.61
2022-07-29T07:25:23.071Z,70.72
2022-07-29T07:27:54.501Z,70.27
2022-07-29T07:30:25.942Z,69.95
2022-07-29T07:32:59.618Z,69.98
2022-07-29T07:35:31.015Z,69.95
2022-07-29T07:38:02.666Z,69.85
2022-07-29T07:40:37.504Z,69.93
2022-07-29T07:43:18.051Z,69.60
2022-07-29T07:45:49.605Z,69.28
2022-07-29T07:48:23.867Z,68.63
2022-07-29T07:50:55.279Z,68.46
2022-07-29T07:53:27.087Z,68.06
2022-07-29T07:56:13.916Z,67.72
2022-07-29T07:58:48.210Z,67.09
2022-07-29T08:01:22.375Z,66.67
2022-07-29T08:03:54.145Z,66.38
2022-07-29T08:06:28.398Z,66.22
2022-07-29T08:09:26.591Z,65.89
2022-07-29T08:11:52.390Z,65.78
2022-07-29T08:14:24.054Z,65.53
2022-07-29T08:16:55.518Z,65.41
2022-07-29T08:19:27.043Z,65.08
2022-07-29T08:21:58.469Z,64.33
2022-07-29T08:24:45.409Z,63.89
2022-07-29T08:27:43.042Z,63.96
2022-07-29T08:30:15.647Z,63.40
2022-07-29T08:32:55.489Z,63.12
2022-07-29T08:35:30.923Z,63.10
2022-07-29T08:38:04.928Z,62.35
2022-07-29T08:40:36.498Z,61.58
2022-07-29T08:43:11.328Z,61.05
2022-07-29T08:45:48.915Z,60.40
2022-07-29T08:48:24.709Z,59.68
2022-07-29T08:50:58.106Z,58.31
2022-07-29T08:53:31.741Z,56.83
2022-07-29T08:56:04.138Z,56.06
2022-07-29T08:58:38.495Z,55.31
2022-07-29T09:01:13.032Z,54.50
2022-07-29T09:03:48.613Z,53.79
2022-07-29T09:06:23.670Z,51.94
2022-07-29T09:08:55.656Z,49.44
2022-07-29T09:11:27.484Z,47.83
2022-07-29T09:13:58.948Z,47.06
2022-07-29T09:16:53.062Z,46.03
2022-07-29T09:19:27.805Z,45.38
2022-07-29T09:22:00.453Z,44.80
2022-07-29T09:24:45.638Z,43.57
2022-07-29T09:27:23.694Z,42.15
2022-07-29T09:30:03.707Z,40.47
2022-07-29T09:32:35.701Z,39.07
2022-07-29T09:35:22.027Z,37.29
2022-07-29T09:37:53.865Z,36.84
2022-07-29T09:40:26.849Z,35.39
2022-07-29T09:42:59.566Z,32.92
2022-07-29T09:45:35.959Z,32.55
2022-07-29T09:48:18.467Z,32.59
2022-07-29T09:50:50.941Z,33.06
2022-07-29T09:53:36.363Z,33.75
2022-07-29T09:56:11.850Z,34.25
2022-07-29T09:58:44.323Z,35.07
2022-07-29T10:01:16.979Z,35.71
2022-07-29T10:03:57.830Z,36.27
2022-07-29T10:06:29.494Z,36.36
2022-07-29T10:09:11.262Z,37.24
2022-07-29T10:11:49.319Z,38.47
2022-07-29T10:14:21.777Z,39.52
2022-07-29T10:16:53.515Z,40.22
2022-07-29T10:19:24.912Z,40.99
2022-07-29T10:21:58.233Z,41.87
2022-07-29T10:24:31.787Z,42.84
2022-07-29T10:27:04.587Z,43.29
2022-07-29T10:29:36.970Z,43.76
2022-07-29T10:32:37.331Z,43.73
2022-07-29T10:35:27.464Z,43.44
2022-07-29T10:38:16.535Z,43.57
2022-07-29T10:41:19.350Z,43.54
2022-07-29T10:43:53.600Z,43.98
2022-07-29T10:46:26.372Z,44.08
2022-07-29T10:49:15.560Z,44.14
2022-07-29T10:52:01.650Z,43.92
2022-07-29T10:54:51.335Z,44.19
2022-07-29T10:57:53.340Z,44.78
2022-07-29T11:00:35.026Z,45.02
2022-07-29T11:03:10.499Z,45.38
2022-07-29T11:06:08.612Z,46.09
2022-07-29T11:08:40.241Z,46.76
2022-07-29T11:11:34.989Z,47.36
2022-07-29T11:14:10.330Z,48.09
2022-07-29T11:17:06.519Z,48.61
2022-07-29T11:19:45.725Z,49.26
2022-07-29T11:22:45.855Z,49.32
2022-07-29T11:25:42.425Z,49.10
2022-07-29T11:28:23.141Z,49.17
2022-07-29T11:30:57.778Z,48.83
2022-07-29T11:33:54.458Z,48.35
2022-07-29T11:36:28.165Z,48.19
2022-07-29T11:39:36.917Z,47.94
2022-07-29T11:42:42.009Z,46.88
2022-07-29T11:45:41.293Z,46.77
2022-07-29T11:48:31.528Z,46.56
2022-07-29T11:51:11.195Z,47.37
2022-07-29T11:53:52.549Z,47.57
2022-07-29T11:56:25.920Z,48.15
2022-07-29T11:59:08.510Z,48.59
2022-07-29T12:02:06.685Z,49.01
2022-07-29T12:04:53.930Z,49.68
2022-07-29T12:07:32.678Z,50.12
2022-07-29T12:10:11.644Z,50.43
2022-07-29T12:13:02.749Z,50.63
2022-07-29T12:15:46.927Z,50.50
2022-07-29T12:18:24.264Z,50.79
2022-07-29T12:21:04.873Z,50.76
2022-07-29T12:23:39.168Z,50.51
2022-07-29T12:26:21.701Z,50.19
2022-07-29T12:29:11.201Z,49.39
2022-07-29T12:31:45.491Z,48.72
2022-07-29T12:34:31.002Z,47.71
2022-07-29T12:37:03.053Z,46.47
2022-07-29T12:39:34.522Z,46.04
2022-07-29T12:42:18.251Z,45.85
2022-07-29T12:44:52.585Z,45.58
2022-07-29T12:47:24.577Z,45.52
2022-07-29T12:50:12.403Z,45.42
2022-07-29T12:52:43.772Z,45.63
2022-07-29T12:55:17.695Z,45.70
2022-07-29T12:57:54.560Z,45.77
2022-07-29T13:00:28.081Z,45.92
2022-07-29T13:03:02.424Z,46.16
2022-07-29T13:05:49.312Z,46.12
2022-07-29T13:08:22.357Z,46.14
2022-07-29T13:10:54.408Z,46.13
2022-07-29T13:13:25.719Z,46.64
2022-07-29T13:16:10.144Z,46.35
2022-07-29T13:18:42.530Z,46.57
2022-07-29T13:21:18.884Z,46.41
2022-07-29T13:23:52.140Z,46.04
2022-07-29T13:26:23.494Z,45.97
2022-07-29T13:28:55.007Z,45.83
2022-07-29T13:31:26.298Z,45.86
2022-07-29T13:33:57.821Z,45.94
2022-07-29T13:36:29.141Z,45.34
2022-07-29T13:39:02.336Z,45.05
2022-07-29T13:41:36.467Z,44.90
2022-07-29T13:44:08.589Z,44.97
2022-07-29T13:46:40.105Z,44.48
2022-07-29T13:49:12.472Z,43.69
2022-07-29T13:51:43.753Z,43.20
2022-07-29T13:54:15.130Z,43.22
2022-07-29T13:56:47.124Z,43.09
2022-07-29T13:59:18.669Z,42.63
2022-07-29T14:01:50.032Z,42.54
2022-07-29T14:04:22.879Z,42.74
2022-07-29T14:06:54.544Z,42.75
2022-07-29T14:09:26.094Z,43.13
2022-07-29T14:11:57.936Z,43.67
2022-07-29T14:14:30.635Z,43.69
2022-07-29T14:17:04.395Z,44.51
2022-07-29T14:19:39.298Z,44.62
2022-07-29T14:22:11.678Z,44.97
2022-07-29T14:24:43.206Z,45.13
2022-07-29T14:27:14.626Z,45.22
2022-07-29T14:29:46.140Z,45.57
2022-07-29T14:32:17.434Z,45.20
2022-07-29T14:34:49.410Z,45.25
2022-07-29T14:37:20.803Z,44.83
2022-07-29T14:40:00.679Z,45.04
2022-07-29T14:42:32.809Z,44.98
2022-07-29T14:45:04.780Z,45.43
2022-07-29T14:47:36.218Z,45.50
2022-07-29T14:50:09.857Z,45.32
2022-07-29T14:52:41.181Z,45.36
2022-07-29T14:55:19.402Z,45.20
2022-07-29T14:57:54.325Z,44.86
2022-07-29T15:00:33.427Z,44.90
2022-07-29T15:03:05.806Z,44.91
2022-07-29T15:05:37.878Z,45.17
2022-07-29T15:08:10.355Z,45.51
2022-07-29T15:10:41.808Z,45.50
2022-07-29T15:13:13.130Z,45.69
2022-07-29T15:15:45.638Z,45.72
2022-07-29T15:18:25.592Z,45.64
2022-07-29T15:20:58.619Z,45.53
2022-07-29T15:23:30.499Z,45.50
2022-07-29T15:26:02.305Z,45.20
2022-07-29T15:28:36.097Z,45.07
2022-07-29T15:31:11.598Z,44.96
2022-07-29T15:33:43.805Z,44.88
2022-07-29T15:36:42.155Z,44.89
2022-07-29T15:39:11.558Z,45.18
2022-07-29T15:41:44.851Z,45.12
2022-07-29T15:44:18.517Z,45.20
2022-07-29T15:47:07.797Z,45.31
2022-07-29T15:49:47.666Z,45.24
2022-07-29T15:52:26.235Z,45.59
2022-07-29T15:54:59.075Z,45.39
2022-07-29T15:57:30.469Z,45.00
2022-07-29T16:00:02.501Z,44.87
2022-07-29T16:02:39.491Z,44.85
2022-07-29T16:05:11.431Z,45.18
2022-07-29T16:07:42.829Z,45.24
2022-07-29T16:10:14.152Z,45.10
2022-07-29T16:12:45.730Z,45.26
2022-07-29T16:15:17.256Z,45.02
2022-07-29T16:17:50.600Z,44.90
2022-07-29T16:20:22.508Z,45.25
2022-07-29T16:22:54.019Z,45.46
2022-07-29T16:25:43.997Z,45.80
2022-07-29T16:28:17.406Z,45.98
2022-07-29T16:30:48.789Z,46.11
2022-07-29T16:33:20.234Z,46.22
2022-07-29T16:35:51.580Z,46.22
2022-07-29T16:38:22.922Z,46.04
2022-07-29T16:40:54.309Z,46.23
2022-07-29T16:43:25.737Z,46.22
2022-07-29T16:45:57.177Z,46.12
2022-07-29T16:48:28.593Z,46.02
2022-07-29T16:50:59.964Z,46.64
2022-07-29T16:53:31.482Z,46.90
2022-07-29T16:56:02.968Z,46.92
2022-07-29T16:58:34.444Z,47.13
2022-07-29T17:01:06.745Z,47.36
2022-07-29T17:04:00.182Z,47.43
2022-07-29T17:06:32.858Z,47.70
2022-07-29T17:09:04.508Z,47.75
2022-07-29T17:11:52.834Z,48.12
2022-07-29T17:14:29.896Z,48.17
2022-07-29T17:17:13.499Z,48.46
2022-07-29T17:19:47.254Z,48.55
2022-07-29T17:22:19.521Z,48.59
2022-07-29T17:24:53.577Z,48.63
2022-07-29T17:27:26.814Z,48.88
2022-07-29T17:29:58.689Z,48.94
2022-07-29T17:32:36.594Z,49.06
2022-07-29T17:35:29.954Z,49.45
2022-07-29T17:38:01.224Z,49.72
2022-07-29T17:40:34.839Z,50.04
2022-07-29T17:43:09.346Z,50.34
2022-07-29T17:45:48.753Z,50.60
2022-07-29T17:48:23.809Z,51.09
2022-07-29T17:50:57.413Z,51.38
2022-07-29T17:53:28.789Z,51.72
2022-07-29T17:56:00.260Z,52.00
2022-07-29T17:58:33.443Z,52.20
2022-07-29T18:01:05.078Z,52.48
2022-07-29T18:03:39.410Z,52.57
2022-07-29T18:06:11.744Z,52.54
2022-07-29T18:08:47.606Z,52.64
2022-07-29T18:11:19.102Z,52.77
2022-07-29T18:13:53.432Z,52.96
2022-07-29T18:16:25.063Z,53.10
2022-07-29T18:18:56.362Z,53.23
2022-07-29T18:21:38.136Z,53.34
2022-07-29T18:24:21.841Z,53.66
2022-07-29T18:26:53.313Z,53.58
2022-07-29T18:29:47.101Z,53.93
2022-07-29T18:33:19.293Z,54.39
2022-07-29T18:35:47.538Z,54.57
2022-07-29T18:38:19.134Z,54.87
2022-07-29T18:40:51.052Z,55.08
2022-07-29T18:43:22.459Z,55.18
2022-07-29T18:45:53.822Z,55.53
2022-07-29T18:48:25.307Z,55.89
2022-07-29T18:50:57.853Z,55.96
2022-07-29T18:53:29.223Z,56.17
2022-07-29T18:56:02.133Z,56.67
2022-07-29T18:58:42.545Z,56.87
2022-07-29T19:01:16.780Z,57.27
2022-07-29T19:03:48.353Z,57.42
2022-07-29T19:06:25.372Z,57.67
2022-07-29T19:09:00.447Z,57.87
2022-07-29T19:11:32.585Z,58.17
2022-07-29T19:14:04.774Z,58.35
2022-07-29T19:16:36.908Z,58.48
2022-07-29T19:19:08.405Z,58.81
2022-07-29T19:21:39.946Z,58.99
2022-07-29T19:24:15.388Z,59.25
2022-07-29T19:26:49.733Z,59.49
2022-07-29T19:29:21.278Z,59.64
2022-07-29T19:31:52.641Z,59.77
2022-07-29T19:34:24.064Z,59.91
2022-07-29T19:36:58.300Z,59.98
2022-07-29T19:39:31.917Z,60.08
2022-07-29T19:42:10.367Z,60.32
2022-07-29T19:44:41.690Z,60.49
2022-07-29T19:47:17.359Z,60.58
2022-07-29T19:49:49.108Z,60.78
2022-07-29T19:52:20.550Z,60.87
2022-07-29T19:54:52.115Z,61.01
2022-07-29T19:57:24.226Z,61.16
2022-07-29T19:59:56.243Z,61.14
2022-07-29T20:02:27.946Z,61.07
2022-07-29T20:04:59.651Z,61.27
2022-07-29T20:07:31.247Z,61.44
2022-07-29T20:10:08.084Z,61.73
2022-07-29T20:12:42.760Z,61.84
2022-07-29T20:15:16.569Z,61.93
2022-07-29T20:17:48.363Z,62.12
2022-07-29T20:20:20.166Z,62.06
2022-07-29T20:22:52.396Z,62.18
2022-07-29T20:25:24.104Z,62.28
2022-07-29T20:27:55.610Z,62.29
2022-07-29T20:30:27.753Z,62.47
2022-07-29T20:33:00.877Z,62.61
2022-07-29T20:35:32.469Z,62.80
2022-07-29T20:38:04.144Z,62.87
2022-07-29T20:40:36.145Z,63.06
2022-07-29T20:43:09.378Z,63.07
2022-07-29T20:45:43.857Z,63.28
2022-07-29T20:48:15.464Z,63.35
2022-07-29T20:50:49.019Z,63.41
2022-07-29T20:53:23.993Z,63.54
2022-07-29T20:55:55.520Z,63.57
2022-07-29T20:58:27.134Z,63.76
2022-07-29T21:00:58.570Z,63.76
2022-07-29T21:03:34.270Z,63.94
2022-07-29T21:06:05.935Z,63.97
2022-07-29T21:08:40.545Z,64.14
2022-07-29T21:11:12.267Z,64.22
2022-07-29T21:13:46.307Z,64.22
2022-07-29T21:16:20.908Z,64.21
2022-07-29T21:18:53.387Z,64.23
2022-07-29T21:21:24.893Z,64.28
2022-07-29T21:23:56.238Z,64.28
2022-07-29T21:26:30.426Z,64.42
2022-07-29T21:29:01.885Z,64.52
2022-07-29T21:31:33.437Z,64.59
2022-07-29T21:34:04.993Z,64.65
2022-07-29T21:36:48.253Z,64.75
2022-07-29T21:39:20.340Z,64.97
2022-07-29T21:41:51.967Z,65.04
2022-07-29T21:44:25.722Z,65.12
2022-07-29T21:47:00.368Z,65.26
2022-07-29T21:49:32.000Z,65.40
2022-07-29T21:52:08.097Z,65.64
2022-07-29T21:54:49.445Z,65.85
2022-07-29T21:57:21.751Z,65.82
2022-07-29T21:59:59.572Z,66.06
2022-07-29T22:02:34.068Z,66.10
2022-07-29T22:05:05.880Z,66.25
2022-07-29T22:07:56.167Z,66.35
2022-07-29T22:10:33.696Z,66.44
2022-07-29T22:13:19.052Z,66.65
2022-07-29T22:15:50.570Z,66.70
2022-07-29T22:18:28.448Z,66.84
2022-07-29T22:21:03.240Z,66.93
2022-07-29T22:23:34.769Z,67.05
2022-07-29T22:26:14.667Z,67.31
2022-07-29T22:28:48.718Z,67.47
2022-07-29T22:31:20.450Z,67.62
2022-07-29T22:33:57.382Z,67.73
2022-07-29T22:36:37.902Z,67.90
2022-07-29T22:39:16.157Z,68.18
2022-07-29T22:41:48.187Z,68.22
2022-07-29T22:44:20.402Z,68.45
2022-07-29T22:46:52.207Z,68.56
2022-07-29T22:49:24.206Z,68.73
2022-07-29T22:51:59.005Z,68.84
2022-07-29T22:54:30.928Z,68.91
2022-07-29T22:57:02.933Z,69.09
2022-07-29T22:59:34.883Z,69.35
2022-07-29T23:02:08.791Z,69.50
2022-07-29T23:04:46.449Z,69.58
2022-07-29T23:07:18.202Z,69.75
2022-07-29T23:09:57.840Z,69.92
2022-07-29T23:12:31.293Z,69.94
2022-07-29T23:15:04.351Z,70.09
2022-07-29T23:17:36.888Z,70.01
2022-07-29T23:20:11.628Z,70.10
2022-07-29T23:22:56.633Z,70.18
2022-07-29T23:25:28.189Z,70.26
2022-07-29T23:27:59.514Z,70.39
2022-07-29T23:30:31.446Z,70.45
2022-07-29T23:33:03.043Z,70.56
2022-07-29T23:35:38.948Z,70.68
2022-07-29T23:38:12.707Z,70.65
2022-07-29T23:40:44.264Z,70.74
2022-07-29T23:43:17.111Z,70.80
2022-07-29T23:45:51.417Z,70.85
2022-07-29T23:48:25.500Z,71.06
2022-07-29T23:50:57.455Z,70.98
2022-07-29T23:53:32.163Z,71.21
2022-07-29T23:56:06.573Z,71.25
2022-07-29T23:58:38.621Z,71.25
